Ag Nektarios Aiginas — SX7083 — position and weather

sailwx.info

Track history (hours):
 
Tides and Currents Weather Stations Pressure Air Temp Water Temp Dewpoint Dewpoint Depression Visibility Wind Speed Wind Dir Waves Ship Positions

Ag Nektarios Aiginas

Last reported at 2014-Nov-01 10:33 UTC. Time now 2014-Nov-01 11:19 UTC.
Position N 37°52' E 023°34'.

Length 75 m; draft 2.7 m.

Type: Passenger vessel. MMSI: 237021400.

Date/timePositionNaut miles runAvg speedWind from/ knotsBaromVisibWave heightAir tempDewpointWater temp
2014-Nov-01 10:33N 37°52' E 023°34'6 5.8
2014-Nov-01 09:33N 37°57' E 023°39'16 7.9
2014-Nov-01 07:34N 37°45' E 023°25'6 5.7
2014-Nov-01 06:33N 37°49' E 023°30'1010.1
2014-Nov-01 05:33N 37°57' E 023°38'2 0.2
2014-Oct-31 17:34N 37°56' E 023°36'1212.4
2014-Oct-31 16:34N 37°47' E 023°26'1 0.8
2014-Oct-31 15:33N 37°46' E 023°25'1313.0
2014-Oct-31 14:33N 37°55' E 023°36'0 0.3
2014-Oct-31 13:34N 37°56' E 023°36'1212.4
2014-Oct-31 12:33N 37°47' E 023°26'1 1.2
2014-Oct-31 11:34N 37°46' E 023°24'1312.9
2014-Oct-31 10:33N 37°55' E 023°36'2 2.5
2014-Oct-31 09:34N 37°57' E 023°38'1111.5
2014-Oct-31 08:33N 37°48' E 023°29'3 2.6
2014-Oct-31 07:33N 37°47' E 023°26'1312.8
2014-Oct-31 06:33N 37°56' E 023°37'1 1.3
2014-Oct-31 05:33N 37°57' E 023°38'1 0.1
2014-Oct-30 17:33N 37°56' E 023°37'1312.6
2014-Oct-30 16:33N 37°47' E 023°26'1 0.6
2014-Oct-30 15:29N 37°46' E 023°25'1213.0
2014-Oct-30 14:33N 37°55' E 023°36'1 1.0
2014-Oct-30 13:33N 37°56' E 023°37'1412.6
2014-Oct-30 12:25N 37°45' E 023°25'1 1.4
2014-Oct-30 11:33N 37°46' E 023°25'1212.1
2014-Oct-30 10:34N 37°55' E 023°36'3 2.5
2014-Oct-30 09:34N 37°57' E 023°38'1212.1
2014-Oct-30 08:34N 37°47' E 023°29'2 2.2
2014-Oct-30 07:34N 37°47' E 023°26'1212.3
2014-Oct-30 06:34N 37°56' E 023°37'2 1.8
2014-Oct-30 05:34N 37°57' E 023°38'2 0.1
2014-Oct-29 17:33N 37°56' E 023°37'1212.5
2014-Oct-29 16:33N 37°47' E 023°26'1 0.8
2014-Oct-29 15:33N 37°46' E 023°25'1312.8
2014-Oct-29 14:33N 37°55' E 023°36'0 0.2
2014-Oct-29 13:33N 37°56' E 023°36'1212.4
2014-Oct-29 12:33N 37°47' E 023°26'1 1.3
2014-Oct-29 11:33N 37°46' E 023°25'1312.7
2014-Oct-29 10:33N 37°55' E 023°36'2 2.4
2014-Oct-29 09:33N 37°56' E 023°38'1212.2
2014-Oct-29 08:33N 37°48' E 023°28'1 0.6
2014-Oct-29 07:33N 37°47' E 023°27'1312.5
2014-Oct-29 06:33N 37°56' E 023°38'1 0.6
2014-Oct-29 05:33N 37°57' E 023°38'0 0.0
2014-Oct-28 18:07N 37°57' E 023°38'2 3.8
2014-Oct-28 17:33N 37°56' E 023°36'1312.6
2014-Oct-28 16:33N 37°46' E 023°25'1 1.0
2014-Oct-28 15:33N 37°45' E 023°25'1313.0
2014-Oct-28 14:33N 37°55' E 023°36'1 0.6
2014-Oct-28 13:33N 37°55' E 023°36'1312.6
2014-Oct-28 12:33N 37°46' E 023°25'1 0.7
2014-Oct-28 11:33N 37°46' E 023°25'1312.8
2014-Oct-28 10:33N 37°55' E 023°36'3 2.7
2014-Oct-28 09:33N 37°57' E 023°38'1110.7
2014-Oct-28 08:33N 37°49' E 023°29'4 3.8
2014-Oct-28 07:33N 37°47' E 023°25'1312.8
2014-Oct-28 06:33N 37°56' E 023°37'2 1.7
2014-Oct-28 05:33N 37°57' E 023°38'2 0.2
2014-Oct-27 17:33N 37°55' E 023°36'1312.5
2014-Oct-27 16:33N 37°46' E 023°25'1 0.8
2014-Oct-27 15:33N 37°46' E 023°25'1312.8
2014-Oct-27 14:33N 37°55' E 023°36'1 0.5
2014-Oct-27 13:33N 37°56' E 023°36'1212.5
2014-Oct-27 12:33N 37°46' E 023°25'1 0.8
2014-Oct-27 11:33N 37°46' E 023°25'1312.8
2014-Oct-27 10:33N 37°55' E 023°36'3 2.6
2014-Oct-27 09:33N 37°57' E 023°38'1211.7
2014-Oct-27 08:33N 37°48' E 023°28'2 1.9
2014-Oct-27 07:33N 37°47' E 023°26'1212.4
2014-Oct-27 06:33N 37°56' E 023°37'1 1.2
2014-Oct-27 05:33N 37°57' E 023°38'0 0.0
2014-Oct-26 18:19N 37°57' E 023°38'6 7.4
2014-Oct-26 17:33N 37°52' E 023°34'1010.1
2014-Oct-26 16:33N 37°45' E 023°25'1 1.1
2014-Oct-26 15:33N 37°46' E 023°25'1312.8
2014-Oct-26 14:33N 37°55' E 023°36'2 2.3
2014-Oct-26 13:33N 37°53' E 023°34'1110.7
2014-Oct-26 12:33N 37°45' E 023°25'1 1.3
2014-Oct-26 11:33N 37°46' E 023°25'1312.5
2014-Oct-26 10:33N 37°55' E 023°36'3 2.9
2014-Oct-26 09:33N 37°57' E 023°39'1111.2
2014-Oct-26 08:33N 37°48' E 023°29'3 2.7
2014-Oct-26 07:33N 37°47' E 023°26'1312.5
2014-Oct-26 06:33N 37°56' E 023°37'2 1.6
2014-Oct-26 05:33N 37°57' E 023°38'2 0.2
2014-Oct-25 16:33N 37°55' E 023°36'1212.3
2014-Oct-25 15:33N 37°47' E 023°26'1 1.4
2014-Oct-25 14:33N 37°45' E 023°25'1312.8
2014-Oct-25 13:33N 37°55' E 023°36'0 0.2
2014-Oct-25 12:33N 37°55' E 023°36'1212.2
2014-Oct-25 11:33N 37°46' E 023°25'1 1.0
2014-Oct-25 10:33N 37°45' E 023°25'1312.7
2014-Oct-25 09:33N 37°54' E 023°35'3 3.2
2014-Oct-25 08:33N 37°57' E 023°38'1111.3
2014-Oct-25 07:33N 37°48' E 023°29'3 2.6
2014-Oct-25 06:33N 37°47' E 023°26'1212.4
2014-Oct-25 05:33N 37°56' E 023°37'2 1.5
2014-Oct-25 04:33N 37°57' E 023°38'0 0.0
2014-Oct-24 13:33N 37°57' E 023°38'5 5.3
2014-Oct-24 12:33N 37°52' E 023°36'9 9.4
2014-Oct-24 11:33N 37°46' E 023°26'1 0.9
2014-Oct-24 10:33N 37°47' E 023°27'1110.8
2014-Oct-24 09:33N 37°55' E 023°36'2 2.1
2014-Oct-24 08:33N 37°56' E 023°38'1311.0
2014-Oct-24 07:21N 37°47' E 023°26'0 0.2
2014-Oct-24 06:33N 37°47' E 023°26'1212.4
2014-Oct-24 05:33N 37°56' E 023°37'1 1.5
2014-Oct-24 04:33N 37°57' E 023°38'3 0.3
2014-Oct-23 16:33N 37°54' E 023°36'1212.0
2014-Oct-23 15:33N 37°46' E 023°25'2 1.5
2014-Oct-23 14:33N 37°47' E 023°26'1111.4
2014-Oct-23 13:33N 37°55' E 023°36'2 2.4
2014-Oct-23 12:33N 37°57' E 023°38'0 0.0
2014-Oct-23 11:33N 37°57' E 023°38'0 0.0
2014-Oct-23 10:33N 37°57' E 023°38'0 0.0
2014-Oct-23 09:33N 37°57' E 023°38'10 9.7
2014-Oct-23 08:33N 37°47' E 023°36'9 8.9
2014-Oct-23 07:33N 37°45' E 023°25'7 6.7
2014-Oct-23 06:33N 37°48' E 023°33'9 8.9
2014-Oct-23 05:33N 37°56' E 023°37'1 1.4
2014-Oct-23 04:33N 37°57' E 023°38'0 0.0
2014-Oct-22 17:03N 37°57' E 023°38'3 5.8
2014-Oct-22 16:33N 37°54' E 023°36'1212.0
2014-Oct-22 15:33N 37°46' E 023°25'1 0.5
2014-Oct-22 14:33N 37°46' E 023°25'1212.4
2014-Oct-22 13:33N 37°55' E 023°35'2 1.6
2014-Oct-22 12:33N 37°56' E 023°37'1212.5
2014-Oct-22 11:33N 37°47' E 023°26'  
Track history (hours):
 
Tides and Currents Weather Stations Pressure Air Temp Water Temp Dewpoint Dewpoint Depression Visibility Wind Speed Wind Dir Waves Ship Positions

Ag Nektarios Aiginas

Last reported at 2014-Nov-01 10:33 UTC. Time now 2014-Nov-01 11:19 UTC.
Position N 37°52' E 023°34'.

Length 75 m; draft 2.7 m.

Type: Passenger vessel. MMSI: 237021400.

Date/timePositionNaut miles runAvg speedWind from/ knotsBaromVisibWave heightAir tempDewpointWater temp
2014-Nov-01 10:33N 37°52' E 023°34'6 5.8
2014-Nov-01 09:33N 37°57' E 023°39'16 7.9
2014-Nov-01 07:34N 37°45' E 023°25'6 5.7
2014-Nov-01 06:33N 37°49' E 023°30'1010.1
2014-Nov-01 05:33N 37°57' E 023°38'2 0.2
2014-Oct-31 17:34N 37°56' E 023°36'1212.4
2014-Oct-31 16:34N 37°47' E 023°26'1 0.8
2014-Oct-31 15:33N 37°46' E 023°25'1313.0
2014-Oct-31 14:33N 37°55' E 023°36'0 0.3
2014-Oct-31 13:34N 37°56' E 023°36'1212.4
2014-Oct-31 12:33N 37°47' E 023°26'1 1.2
2014-Oct-31 11:34N 37°46' E 023°24'1312.9
2014-Oct-31 10:33N 37°55' E 023°36'2 2.5
2014-Oct-31 09:34N 37°57' E 023°38'1111.5
2014-Oct-31 08:33N 37°48' E 023°29'3 2.6
2014-Oct-31 07:33N 37°47' E 023°26'1312.8
2014-Oct-31 06:33N 37°56' E 023°37'1 1.3
2014-Oct-31 05:33N 37°57' E 023°38'1 0.1
2014-Oct-30 17:33N 37°56' E 023°37'1312.6
2014-Oct-30 16:33N 37°47' E 023°26'1 0.6
2014-Oct-30 15:29N 37°46' E 023°25'1213.0
2014-Oct-30 14:33N 37°55' E 023°36'1 1.0
2014-Oct-30 13:33N 37°56' E 023°37'1412.6
2014-Oct-30 12:25N 37°45' E 023°25'1 1.4
2014-Oct-30 11:33N 37°46' E 023°25'1212.1
2014-Oct-30 10:34N 37°55' E 023°36'3 2.5
2014-Oct-30 09:34N 37°57' E 023°38'1212.1
2014-Oct-30 08:34N 37°47' E 023°29'2 2.2
2014-Oct-30 07:34N 37°47' E 023°26'1212.3
2014-Oct-30 06:34N 37°56' E 023°37'2 1.8
2014-Oct-30 05:34N 37°57' E 023°38'2 0.1
2014-Oct-29 17:33N 37°56' E 023°37'1212.5
2014-Oct-29 16:33N 37°47' E 023°26'1 0.8
2014-Oct-29 15:33N 37°46' E 023°25'1312.8
2014-Oct-29 14:33N 37°55' E 023°36'0 0.2
2014-Oct-29 13:33N 37°56' E 023°36'1212.4
2014-Oct-29 12:33N 37°47' E 023°26'1 1.3
2014-Oct-29 11:33N 37°46' E 023°25'1312.7
2014-Oct-29 10:33N 37°55' E 023°36'2 2.4
2014-Oct-29 09:33N 37°56' E 023°38'1212.2
2014-Oct-29 08:33N 37°48' E 023°28'1 0.6
2014-Oct-29 07:33N 37°47' E 023°27'1312.5
2014-Oct-29 06:33N 37°56' E 023°38'1 0.6
2014-Oct-29 05:33N 37°57' E 023°38'0 0.0
2014-Oct-28 18:07N 37°57' E 023°38'2 3.8
2014-Oct-28 17:33N 37°56' E 023°36'1312.6
2014-Oct-28 16:33N 37°46' E 023°25'1 1.0
2014-Oct-28 15:33N 37°45' E 023°25'1313.0
2014-Oct-28 14:33N 37°55' E 023°36'1 0.6
2014-Oct-28 13:33N 37°55' E 023°36'1312.6
2014-Oct-28 12:33N 37°46' E 023°25'1 0.7
2014-Oct-28 11:33N 37°46' E 023°25'1312.8
2014-Oct-28 10:33N 37°55' E 023°36'3 2.7
2014-Oct-28 09:33N 37°57' E 023°38'1110.7
2014-Oct-28 08:33N 37°49' E 023°29'4 3.8
2014-Oct-28 07:33N 37°47' E 023°25'1312.8
2014-Oct-28 06:33N 37°56' E 023°37'2 1.7
2014-Oct-28 05:33N 37°57' E 023°38'2 0.2
2014-Oct-27 17:33N 37°55' E 023°36'1312.5
2014-Oct-27 16:33N 37°46' E 023°25'1 0.8
2014-Oct-27 15:33N 37°46' E 023°25'1312.8
2014-Oct-27 14:33N 37°55' E 023°36'1 0.5
2014-Oct-27 13:33N 37°56' E 023°36'1212.5
2014-Oct-27 12:33N 37°46' E 023°25'1 0.8
2014-Oct-27 11:33N 37°46' E 023°25'1312.8
2014-Oct-27 10:33N 37°55' E 023°36'3 2.6
2014-Oct-27 09:33N 37°57' E 023°38'1211.7
2014-Oct-27 08:33N 37°48' E 023°28'2 1.9
2014-Oct-27 07:33N 37°47' E 023°26'1212.4
2014-Oct-27 06:33N 37°56' E 023°37'1 1.2
2014-Oct-27 05:33N 37°57' E 023°38'0 0.0
2014-Oct-26 18:19N 37°57' E 023°38'6 7.4
2014-Oct-26 17:33N 37°52' E 023°34'1010.1
2014-Oct-26 16:33N 37°45' E 023°25'1 1.1
2014-Oct-26 15:33N 37°46' E 023°25'1312.8
2014-Oct-26 14:33N 37°55' E 023°36'2 2.3
2014-Oct-26 13:33N 37°53' E 023°34'1110.7
2014-Oct-26 12:33N 37°45' E 023°25'1 1.3
2014-Oct-26 11:33N 37°46' E 023°25'1312.5
2014-Oct-26 10:33N 37°55' E 023°36'3 2.9
2014-Oct-26 09:33N 37°57' E 023°39'1111.2
2014-Oct-26 08:33N 37°48' E 023°29'3 2.7
2014-Oct-26 07:33N 37°47' E 023°26'1312.5
2014-Oct-26 06:33N 37°56' E 023°37'2 1.6
2014-Oct-26 05:33N 37°57' E 023°38'2 0.2
2014-Oct-25 16:33N 37°55' E 023°36'1212.3
2014-Oct-25 15:33N 37°47' E 023°26'1 1.4
2014-Oct-25 14:33N 37°45' E 023°25'1312.8
2014-Oct-25 13:33N 37°55' E 023°36'0 0.2
2014-Oct-25 12:33N 37°55' E 023°36'1212.2
2014-Oct-25 11:33N 37°46' E 023°25'1 1.0
2014-Oct-25 10:33N 37°45' E 023°25'1312.7
2014-Oct-25 09:33N 37°54' E 023°35'3 3.2
2014-Oct-25 08:33N 37°57' E 023°38'1111.3
2014-Oct-25 07:33N 37°48' E 023°29'3 2.6
2014-Oct-25 06:33N 37°47' E 023°26'1212.4
2014-Oct-25 05:33N 37°56' E 023°37'2 1.5
2014-Oct-25 04:33N 37°57' E 023°38'0 0.0
2014-Oct-24 13:33N 37°57' E 023°38'5 5.3
2014-Oct-24 12:33N 37°52' E 023°36'9 9.4
2014-Oct-24 11:33N 37°46' E 023°26'1 0.9
2014-Oct-24 10:33N 37°47' E 023°27'1110.8
2014-Oct-24 09:33N 37°55' E 023°36'2 2.1
2014-Oct-24 08:33N 37°56' E 023°38'1311.0
2014-Oct-24 07:21N 37°47' E 023°26'0 0.2
2014-Oct-24 06:33N 37°47' E 023°26'1212.4
2014-Oct-24 05:33N 37°56' E 023°37'1 1.5
2014-Oct-24 04:33N 37°57' E 023°38'3 0.3
2014-Oct-23 16:33N 37°54' E 023°36'1212.0
2014-Oct-23 15:33N 37°46' E 023°25'2 1.5
2014-Oct-23 14:33N 37°47' E 023°26'1111.4
2014-Oct-23 13:33N 37°55' E 023°36'2 2.4
2014-Oct-23 12:33N 37°57' E 023°38'0 0.0
2014-Oct-23 11:33N 37°57' E 023°38'0 0.0
2014-Oct-23 10:33N 37°57' E 023°38'0 0.0
2014-Oct-23 09:33N 37°57' E 023°38'10 9.7
2014-Oct-23 08:33N 37°47' E 023°36'9 8.9
2014-Oct-23 07:33N 37°45' E 023°25'7 6.7
2014-Oct-23 06:33N 37°48' E 023°33'9 8.9
2014-Oct-23 05:33N 37°56' E 023°37'1 1.4
2014-Oct-23 04:33N 37°57' E 023°38'0 0.0
2014-Oct-22 17:03N 37°57' E 023°38'3 5.8
2014-Oct-22 16:33N 37°54' E 023°36'1212.0
2014-Oct-22 15:33N 37°46' E 023°25'1 0.5
2014-Oct-22 14:33N 37°46' E 023°25'1212.4
2014-Oct-22 13:33N 37°55' E 023°35'2 1.6
2014-Oct-22 12:33N 37°56' E 023°37'1212.5
2014-Oct-22 11:33N 37°47' E 023°26'  

Dump ship's entire track history